FMEP/ZSE METAR and TAF weather

Enter ICAO airport designator
Station Type Date Time Source
FMEP METAR 2019/02/20 23:30 UTC NOAA

FMEP 202330Z AUTO 04006KT CAVOK 27/23 Q1013


Station Type Date Time Source
FMEP Decoded METAR 2019/02/20 23:30 UTC NOAA

Saint-Pierre, Reunion (FMEP) 21-20S 055-29E 53M
Feb 20, 2019 - 06:30 PM EST / 2019.02.20 2330 UTC
Wind: from the NE (040 degrees) at 7 MPH (6 KT):0
Visibility: greater than 7 mile(s):0
Temperature: 80 F (27 C)
Dew Point: 73 F (23 C)
Relative Humidity: 78%
Pressure (altimeter): 29.91 in. Hg (1013 hPa)
ob: FMEP 202330Z AUTO 04006KT CAVOK 27/23 Q1013
cycle: 23

Station Type Date Time Source
FMEP TAF 2019/01/07 12:00 UTC NOAA

TAF FMEP 071100Z 0712/0721 VRB02KT 6000 FEW030CB SCT050 BKN100
TEMPO 0712/0721 2000 TSRA SCT026CB


Example: see airport list